createdAt,value
2023-04-28T00:02:03.711Z,1.50
2023-04-28T00:04:31.662Z,1.20
2023-04-28T00:06:58.827Z,0.80
2023-04-28T00:09:25.753Z,0.30
2023-04-28T00:11:52.786Z,0.80
2023-04-28T00:14:19.752Z,0.50
2023-04-28T00:16:46.897Z,0.10
2023-04-28T00:19:13.980Z,1.20
2023-04-28T00:21:40.953Z,0.50
2023-04-28T00:24:08.204Z,1.90
2023-04-28T00:26:35.248Z,0.60
2023-04-28T00:29:02.193Z,1.90
2023-04-28T00:31:29.380Z,0.90
2023-04-28T00:33:56.430Z,4.40
2023-04-28T00:36:23.412Z,1.10
2023-04-28T00:38:50.945Z,1.90
2023-04-28T00:41:17.895Z,0.50
2023-04-28T00:43:48.301Z,0.60
2023-04-28T00:46:22.816Z,5.30
2023-04-28T00:48:50.233Z,0.70
2023-04-28T00:51:17.852Z,0.80
2023-04-28T00:53:45.567Z,1.10
2023-04-28T00:56:13.005Z,0.50
2023-04-28T00:58:40.261Z,1.60
2023-04-28T01:01:08.381Z,0.40
2023-04-28T01:03:38.102Z,6.40
2023-04-28T01:06:06.587Z,1.70
2023-04-28T01:08:34.789Z,0.50
2023-04-28T01:11:02.305Z,0.40
2023-04-28T01:13:48.031Z,0.30
2023-04-28T01:16:15.508Z,0.40
2023-04-28T01:18:43.255Z,1.40
2023-04-28T01:21:10.389Z,0.60
2023-04-28T01:23:38.158Z,1.80
2023-04-28T01:26:05.513Z,6.10
2023-04-28T01:28:33.578Z,1.10
2023-04-28T01:31:00.528Z,0.30
2023-04-28T01:33:27.672Z,0.30
2023-04-28T01:35:58.856Z,0.80
2023-04-28T01:38:25.868Z,1.10
2023-04-28T01:40:54.880Z,1.70
2023-04-28T01:43:21.822Z,1.80
2023-04-28T01:45:49.171Z,1.00
2023-04-28T01:48:16.189Z,2.30
2023-04-28T01:50:43.238Z,0.50
2023-04-28T01:53:10.182Z,0.60
2023-04-28T01:55:38.451Z,2.50
2023-04-28T01:58:05.805Z,0.50
2023-04-28T02:00:32.846Z,0.70
2023-04-28T02:02:59.913Z,2.20
2023-04-28T02:05:27.172Z,1.60
2023-04-28T02:07:54.291Z,1.60
2023-04-28T02:10:21.693Z,1.10
2023-04-28T02:12:49.141Z,0.90
2023-04-28T02:15:17.152Z,1.20
2023-04-28T02:17:44.371Z,0.70
2023-04-28T02:20:12.230Z,0.80
2023-04-28T02:22:39.154Z,1.00
2023-04-28T02:25:07.812Z,0.70
2023-04-28T02:27:38.435Z,0.30
2023-04-28T02:30:06.346Z,2.60
2023-04-28T02:32:33.396Z,0.40
2023-04-28T02:35:00.402Z,2.40
2023-04-28T02:37:27.650Z,1.60
2023-04-28T02:39:54.655Z,5.90
2023-04-28T02:42:22.760Z,0.60
2023-04-28T02:44:49.822Z,0.40
2023-04-28T02:47:16.852Z,0.30
2023-04-28T02:49:44.102Z,1.60
2023-04-28T02:52:11.585Z,0.50
2023-04-28T02:54:38.710Z,0.20
2023-04-28T02:57:05.944Z,0.40
2023-04-28T02:59:32.840Z,1.20
2023-04-28T03:01:59.947Z,1.60
2023-04-28T03:04:27.519Z,0.90
2023-04-28T03:06:54.655Z,0.90
2023-04-28T03:09:21.550Z,0.40
2023-04-28T03:11:48.526Z,1.50
2023-04-28T03:14:15.846Z,0.60
2023-04-28T03:16:43.811Z,2.50
2023-04-28T03:19:11.009Z,0.30
2023-04-28T03:21:37.926Z,1.00
2023-04-28T03:24:05.754Z,0.90
2023-04-28T03:26:33.605Z,1.50
2023-04-28T03:29:00.671Z,0.70
2023-04-28T03:31:27.918Z,1.40
2023-04-28T03:33:54.977Z,2.90
2023-04-28T03:36:22.378Z,2.00
2023-04-28T03:38:49.391Z,3.00
2023-04-28T03:41:16.365Z,1.10
2023-04-28T03:44:09.620Z,1.10
2023-04-28T03:46:45.525Z,0.40
2023-04-28T03:49:12.831Z,0.80
2023-04-28T03:51:39.774Z,0.70
2023-04-28T03:54:07.327Z,2.60
2023-04-28T03:56:34.683Z,1.60
2023-04-28T03:59:01.813Z,2.20
2023-04-28T04:01:28.874Z,1.00
2023-04-28T04:03:56.121Z,1.00
2023-04-28T04:06:23.867Z,1.00
2023-04-28T04:08:51.136Z,1.90
2023-04-28T04:11:18.390Z,2.40
2023-04-28T04:13:45.334Z,0.90
2023-04-28T04:16:16.190Z,1.10
2023-04-28T04:18:43.520Z,2.00
2023-04-28T04:21:21.226Z,0.90
2023-04-28T04:23:50.104Z,3.30
2023-04-28T04:26:17.152Z,2.00
2023-04-28T04:28:44.204Z,1.00
2023-04-28T04:31:11.418Z,1.30
2023-04-28T04:33:38.522Z,0.40
2023-04-28T04:36:06.869Z,1.70
2023-04-28T04:38:33.948Z,0.50
2023-04-28T04:41:09.252Z,0.50
2023-04-28T04:43:36.236Z,1.00
2023-04-28T04:46:04.305Z,1.20
2023-04-28T04:48:32.297Z,0.70
2023-04-28T04:50:59.278Z,2.20
2023-04-28T04:53:26.530Z,1.80
2023-04-28T04:55:54.149Z,0.70
2023-04-28T04:58:21.555Z,0.60
2023-04-28T05:01:12.605Z,2.90
2023-04-28T05:03:43.876Z,0.60
2023-04-28T05:06:11.723Z,0.80
2023-04-28T05:08:43.215Z,2.50
2023-04-28T05:11:10.306Z,1.60
2023-04-28T05:13:37.319Z,0.80
2023-04-28T05:16:04.984Z,3.00
2023-04-28T05:18:34.583Z,3.40
2023-04-28T05:21:01.760Z,1.80
2023-04-28T05:23:28.693Z,2.10
2023-04-28T05:25:55.727Z,1.10
2023-04-28T05:28:22.688Z,4.50
2023-04-28T05:30:51.765Z,2.60
2023-04-28T05:33:18.948Z,6.60
2023-04-28T05:35:47.372Z,1.50
2023-04-28T05:38:14.833Z,0.70
2023-04-28T05:40:42.897Z,6.40
2023-04-28T05:43:11.921Z,1.50
2023-04-28T05:45:39.313Z,0.70
2023-04-28T05:48:06.626Z,0.40
2023-04-28T05:50:34.051Z,0.90
2023-04-28T05:53:01.611Z,2.00
2023-04-28T05:55:30.804Z,0.60
2023-04-28T05:58:02.220Z,0.80
2023-04-28T06:00:29.749Z,0.50
2023-04-28T06:02:58.717Z,1.30
2023-04-28T06:05:26.093Z,4.10
2023-04-28T06:07:56.263Z,0.60
2023-04-28T06:10:23.934Z,2.40
2023-04-28T06:12:51.254Z,2.90
2023-04-28T06:15:18.336Z,0.60
2023-04-28T06:17:45.801Z,0.80
2023-04-28T06:20:14.048Z,1.10
2023-04-28T06:22:41.589Z,1.10
2023-04-28T06:25:09.161Z,0.70
2023-04-28T06:27:42.743Z,1.00
2023-04-28T06:30:10.035Z,1.70
2023-04-28T06:32:36.978Z,4.20
2023-04-28T06:35:04.555Z,0.80
2023-04-28T06:37:31.676Z,2.50
2023-04-28T06:39:58.823Z,0.70
2023-04-28T06:42:27.005Z,0.30
2023-04-28T06:45:07.771Z,0.70
2023-04-28T06:47:37.697Z,0.50
2023-04-28T06:50:08.996Z,0.60
2023-04-28T06:52:39.284Z,1.30
2023-04-28T06:55:09.388Z,0.60
2023-04-28T06:57:40.625Z,1.00
2023-04-28T07:00:08.985Z,0.80
2023-04-28T07:02:37.121Z,2.40
2023-04-28T07:05:05.097Z,0.70
2023-04-28T07:07:32.074Z,1.30
2023-04-28T07:10:00.543Z,2.30
2023-04-28T07:12:27.647Z,0.90
2023-04-28T07:14:55.975Z,0.40
2023-04-28T07:17:24.236Z,2.00
2023-04-28T07:19:53.336Z,0.90
2023-04-28T07:22:21.698Z,1.10
2023-04-28T07:24:49.866Z,1.00
2023-04-28T07:27:17.260Z,1.80
2023-04-28T07:29:44.392Z,5.40
2023-04-28T07:32:11.382Z,0.50
2023-04-28T07:34:38.626Z,0.30
2023-04-28T07:37:06.005Z,0.60
2023-04-28T07:39:36.917Z,0.50
2023-04-28T07:42:04.135Z,1.10
2023-04-28T07:44:31.394Z,0.90
2023-04-28T07:46:59.541Z,1.00
2023-04-28T07:49:28.679Z,0.40
2023-04-28T07:51:56.743Z,0.50
2023-04-28T07:54:23.970Z,0.60
2023-04-28T07:56:51.527Z,1.30
2023-04-28T07:59:18.495Z,1.40
2023-04-28T08:01:45.723Z,1.10
2023-04-28T08:04:13.007Z,0.50
2023-04-28T08:06:40.936Z,0.50
2023-04-28T08:09:07.957Z,1.40
2023-04-28T08:14:57.032Z,2.80
2023-04-28T08:17:24.381Z,0.50
2023-04-28T08:19:52.146Z,1.80
2023-04-28T08:22:19.184Z,2.40
2023-04-28T08:24:46.374Z,3.00
2023-04-28T08:27:13.368Z,1.70
2023-04-28T08:29:40.578Z,1.30
2023-04-28T08:32:07.497Z,0.30
2023-04-28T08:34:34.882Z,2.50
2023-04-28T08:37:01.947Z,0.60
2023-04-28T08:39:29.377Z,0.90
2023-04-28T08:41:56.814Z,0.50
2023-04-28T08:44:24.048Z,3.30
2023-04-28T08:46:51.359Z,1.10
2023-04-28T08:49:18.978Z,0.80
2023-04-28T08:51:51.848Z,2.30
2023-04-28T08:54:26.570Z,0.40
2023-04-28T08:56:54.670Z,3.10
2023-04-28T08:59:21.619Z,3.30
2023-04-28T09:01:49.829Z,0.90
2023-04-28T09:07:36.806Z,1.20
2023-04-28T09:10:28.390Z,0.80
2023-04-28T09:12:56.012Z,1.00
2023-04-28T09:15:32.662Z,6.70
2023-04-28T09:18:04.626Z,0.50
2023-04-28T09:20:32.443Z,1.20
2023-04-28T09:23:19.379Z,2.90
2023-04-28T09:26:15.878Z,1.90
2023-04-28T09:28:42.843Z,1.10
2023-04-28T09:31:26.049Z,1.10
2023-04-28T09:34:00.314Z,0.90
2023-04-28T09:36:29.905Z,1.10
2023-04-28T09:38:59.136Z,1.30
2023-04-28T09:41:42.759Z,0.20
2023-04-28T09:44:17.585Z,1.00
2023-04-28T09:49:12.577Z,1.50
2023-04-28T09:51:39.727Z,0.30
2023-04-28T09:54:06.982Z,7.10
2023-04-28T09:56:35.062Z,4.90
2023-04-28T09:59:02.317Z,2.40
2023-04-28T10:01:33.578Z,0.40
2023-04-28T10:04:01.396Z,0.90
2023-04-28T10:06:30.268Z,1.30
2023-04-28T10:08:59.068Z,11.00
2023-04-28T10:11:26.218Z,1.10
2023-04-28T10:13:53.521Z,1.20
2023-04-28T10:16:20.649Z,0.90
2023-04-28T10:18:47.875Z,0.30
2023-04-28T10:21:18.133Z,3.00
2023-04-28T10:24:05.240Z,1.10
2023-04-28T10:27:01.681Z,1.00
2023-04-28T10:29:29.013Z,0.30
2023-04-28T10:32:18.673Z,0.80
2023-04-28T10:34:45.738Z,0.40
2023-04-28T10:37:15.610Z,0.40
2023-04-28T10:40:21.696Z,0.70
2023-04-28T10:42:53.045Z,0.50
2023-04-28T10:46:00.239Z,0.70
2023-04-28T10:48:31.291Z,0.60
2023-04-28T10:51:04.641Z,3.10
2023-04-28T10:53:48.496Z,1.40
2023-04-28T10:56:18.668Z,1.30
2023-04-28T10:58:46.639Z,1.70
2023-04-28T11:01:25.214Z,1.50
2023-04-28T11:04:04.529Z,1.20
2023-04-28T11:06:36.609Z,1.20
2023-04-28T11:09:24.109Z,1.70
2023-04-28T11:12:00.521Z,0.30
2023-04-28T11:14:32.915Z,0.60
2023-04-28T11:17:06.970Z,0.90
2023-04-28T11:19:35.587Z,0.50
2023-04-28T11:22:04.416Z,1.40
2023-04-28T11:24:31.802Z,0.80
2023-04-28T11:26:59.504Z,2.10
2023-04-28T11:29:36.951Z,2.30
2023-04-28T11:32:05.029Z,2.80
2023-04-28T11:34:32.825Z,0.80
2023-04-28T11:37:00.059Z,0.80
2023-04-28T11:39:31.400Z,0.70
2023-04-28T11:41:59.458Z,1.00
2023-04-28T11:44:29.390Z,2.30
2023-04-28T11:47:01.293Z,4.80
2023-04-28T11:49:30.503Z,2.40
2023-04-28T11:52:00.073Z,0.40
2023-04-28T11:54:28.141Z,0.30
2023-04-28T11:56:56.655Z,3.00
2023-04-28T11:59:34.313Z,0.60
2023-04-28T12:02:03.532Z,1.00
2023-04-28T12:04:38.178Z,1.80
2023-04-28T12:07:12.909Z,2.10
2023-04-28T12:09:44.171Z,0.50
2023-04-28T12:12:17.170Z,0.50
2023-04-28T12:14:53.927Z,0.50
2023-04-28T12:17:34.186Z,2.10
2023-04-28T12:20:02.668Z,0.50
2023-04-28T12:22:30.467Z,1.40
2023-04-28T12:25:04.963Z,0.70
2023-04-28T12:27:32.410Z,0.50
2023-04-28T12:29:59.595Z,2.10
2023-04-28T12:32:43.566Z,1.30
2023-04-28T12:35:10.618Z,1.20
2023-04-28T12:37:40.002Z,0.40
2023-04-28T12:40:07.986Z,0.90
2023-04-28T12:42:38.207Z,0.30
2023-04-28T12:45:09.163Z,0.60
2023-04-28T12:47:37.989Z,0.80
2023-04-28T12:54:29.796Z,1.30
2023-04-28T12:56:57.041Z,0.80
2023-04-28T13:02:55.402Z,0.40
2023-04-28T13:05:22.538Z,1.20
2023-04-28T13:07:50.972Z,2.00
2023-04-28T13:10:23.110Z,2.00
2023-04-28T13:12:53.982Z,1.10
2023-04-28T13:15:21.368Z,0.60
2023-04-28T13:17:48.944Z,1.70
2023-04-28T13:20:16.365Z,2.40
2023-04-28T13:22:43.689Z,1.80
2023-04-28T13:25:10.755Z,1.00
2023-04-28T13:27:38.555Z,1.20
2023-04-28T13:30:08.858Z,0.80
2023-04-28T13:32:35.856Z,1.00
2023-04-28T13:35:03.776Z,0.80
2023-04-28T13:37:32.015Z,0.80
2023-04-28T13:40:07.279Z,1.70
2023-04-28T13:42:42.181Z,2.60
2023-04-28T13:45:09.928Z,0.30
2023-04-28T13:47:37.279Z,1.10
2023-04-28T13:50:04.848Z,1.00
2023-04-28T13:52:31.791Z,0.90
2023-04-28T13:54:58.886Z,1.30
2023-04-28T13:57:26.503Z,1.30
2023-04-28T13:59:53.686Z,1.30
2023-04-28T14:02:20.870Z,1.20
2023-04-28T14:04:50.802Z,2.40
2023-04-28T14:07:18.197Z,0.70
2023-04-28T14:13:16.192Z,0.90
2023-04-28T14:15:51.234Z,3.70
2023-04-28T14:18:25.558Z,0.80
2023-04-28T14:20:54.401Z,3.00
2023-04-28T14:23:22.876Z,0.30
2023-04-28T14:25:50.548Z,1.30
2023-04-28T14:28:17.873Z,0.80
2023-04-28T14:30:45.036Z,0.70
2023-04-28T14:33:15.834Z,1.30
2023-04-28T14:35:43.026Z,0.80
2023-04-28T14:38:10.176Z,1.00
2023-04-28T14:40:37.233Z,0.80
2023-04-28T14:43:04.292Z,1.40
2023-04-28T14:45:32.157Z,4.00
2023-04-28T14:47:59.326Z,1.00
2023-04-28T14:50:26.338Z,1.70
2023-04-28T14:52:53.303Z,2.20
2023-04-28T14:55:20.278Z,1.60
2023-04-28T14:57:48.406Z,0.70
2023-04-28T15:00:16.498Z,0.80
2023-04-28T15:02:44.501Z,1.70
2023-04-28T15:05:12.785Z,2.80
2023-04-28T15:07:40.376Z,4.80
2023-04-28T15:10:08.197Z,5.60
2023-04-28T15:12:37.822Z,1.20
2023-04-28T15:15:05.726Z,3.50
2023-04-28T15:17:34.399Z,7.30
2023-04-28T15:20:02.146Z,3.90
2023-04-28T15:22:29.206Z,3.10
2023-04-28T15:24:56.465Z,2.40
2023-04-28T15:27:24.031Z,2.80
2023-04-28T15:29:50.953Z,3.40
2023-04-28T15:32:18.320Z,3.20
2023-04-28T15:34:45.289Z,2.70
2023-04-28T15:37:38.108Z,1.50
2023-04-28T15:40:09.859Z,3.80
2023-04-28T15:42:37.886Z,3.40
2023-04-28T15:45:06.136Z,2.90
2023-04-28T15:47:33.397Z,7.70
2023-04-28T15:50:00.770Z,2.00
2023-04-28T15:52:29.653Z,4.10
2023-04-28T15:54:56.995Z,8.00
2023-04-28T15:57:24.274Z,3.90
2023-04-28T15:59:51.907Z,4.90
2023-04-28T16:02:26.319Z,6.50
2023-04-28T16:08:29.544Z,10.60
2023-04-28T16:10:56.589Z,3.70
2023-04-28T16:13:23.842Z,6.00
2023-04-28T16:15:52.011Z,6.30
2023-04-28T16:18:20.482Z,2.40
2023-04-28T16:20:47.890Z,2.80
2023-04-28T16:26:45.857Z,1.90
2023-04-28T16:32:04.423Z,5.30
2023-04-28T16:34:31.542Z,3.00
2023-04-28T16:36:59.662Z,2.30
2023-04-28T16:39:27.111Z,3.50
2023-04-28T16:41:54.055Z,1.40
2023-04-28T16:44:21.270Z,6.60
2023-04-28T16:46:49.032Z,4.70
2023-04-28T16:49:16.186Z,1.40
2023-04-28T16:51:55.512Z,6.20
2023-04-28T16:54:22.555Z,4.90
2023-04-28T16:56:50.013Z,14.30
2023-04-28T16:59:17.681Z,13.90
2023-04-28T17:01:45.636Z,9.30
2023-04-28T17:04:13.957Z,10.10
2023-04-28T17:06:41.384Z,7.10
2023-04-28T17:09:12.570Z,5.00
2023-04-28T17:11:40.386Z,2.40
2023-04-28T17:14:07.334Z,4.40
2023-04-28T17:16:34.573Z,1.70
2023-04-28T17:19:01.725Z,0.90
2023-04-28T17:21:29.394Z,0.90
2023-04-28T17:23:59.329Z,4.50
2023-04-28T17:26:27.528Z,5.10
2023-04-28T17:28:55.778Z,10.50
2023-04-28T17:31:23.109Z,5.10
2023-04-28T17:33:51.380Z,2.00
2023-04-28T17:36:19.304Z,2.80
2023-04-28T17:38:46.696Z,8.70
2023-04-28T17:41:15.179Z,13.00
2023-04-28T17:43:42.303Z,9.70
2023-04-28T17:46:09.416Z,5.70
2023-04-28T17:48:36.624Z,7.60
2023-04-28T17:51:03.786Z,4.20
2023-04-28T17:53:30.930Z,4.30
2023-04-28T17:55:57.843Z,7.80
2023-04-28T17:58:24.848Z,13.70
2023-04-28T18:01:00.165Z,6.40
2023-04-28T18:03:27.455Z,7.50
2023-04-28T18:05:54.576Z,10.10
2023-04-28T18:08:21.592Z,6.70
2023-04-28T18:10:48.663Z,3.80
2023-04-28T18:13:15.790Z,7.30
2023-04-28T18:15:47.258Z,5.80
2023-04-28T18:18:14.817Z,5.40
2023-04-28T18:20:42.278Z,7.00
2023-04-28T18:23:09.967Z,5.50
2023-04-28T18:25:37.201Z,4.10
2023-04-28T18:28:04.915Z,9.40
2023-04-28T18:30:40.977Z,9.60
2023-04-28T18:33:09.153Z,2.30
2023-04-28T18:35:37.142Z,7.40
2023-04-28T18:38:05.208Z,12.40
2023-04-28T18:40:38.732Z,11.40
2023-04-28T18:43:10.442Z,6.70
2023-04-28T18:45:40.967Z,6.40
2023-04-28T18:48:09.195Z,9.20
2023-04-28T18:50:36.539Z,6.70
2023-04-28T18:53:04.522Z,6.50
2023-04-28T18:55:35.011Z,7.10
2023-04-28T18:58:02.377Z,6.70
2023-04-28T19:00:30.556Z,9.60
2023-04-28T19:02:57.814Z,6.40
2023-04-28T19:05:26.044Z,11.40
2023-04-28T19:07:53.056Z,6.50
2023-04-28T19:10:20.037Z,5.50
2023-04-28T19:12:47.192Z,4.20
2023-04-28T19:15:14.839Z,8.70
2023-04-28T19:17:42.005Z,7.20
2023-04-28T19:20:09.475Z,11.50
2023-04-28T19:22:44.067Z,19.60
2023-04-28T19:25:11.633Z,13.90
2023-04-28T19:27:40.466Z,15.20
2023-04-28T19:30:10.136Z,15.70
2023-04-28T19:32:37.390Z,12.30
2023-04-28T19:35:05.036Z,18.80
2023-04-28T19:37:35.861Z,12.40
2023-04-28T19:40:05.069Z,12.60
2023-04-28T19:42:33.263Z,15.80
2023-04-28T19:45:00.385Z,14.80
2023-04-28T19:47:29.759Z,8.70
2023-04-28T19:49:56.931Z,9.50
2023-04-28T19:52:24.618Z,9.40
2023-04-28T19:54:51.880Z,9.10
2023-04-28T19:57:19.497Z,11.00
2023-04-28T19:59:47.423Z,12.70
2023-04-28T20:02:15.777Z,3.80
2023-04-28T20:04:43.019Z,7.30
2023-04-28T20:07:10.714Z,7.70
2023-04-28T20:09:38.942Z,9.40
2023-04-28T20:12:07.654Z,7.80
2023-04-28T20:14:34.863Z,14.80
2023-04-28T20:17:02.629Z,7.80
2023-04-28T20:19:29.778Z,9.90
2023-04-28T20:21:57.024Z,9.20
2023-04-28T20:24:24.141Z,15.40
2023-04-28T20:26:52.038Z,13.80
2023-04-28T20:29:19.087Z,5.20
2023-04-28T20:31:46.086Z,9.00
2023-04-28T20:34:14.610Z,10.50
2023-04-28T20:36:42.823Z,8.00
2023-04-28T20:39:11.319Z,15.90
2023-04-28T20:41:41.214Z,7.50
2023-04-28T20:44:08.664Z,5.60
2023-04-28T20:46:36.308Z,7.40
2023-04-28T20:49:04.521Z,4.10
2023-04-28T20:51:34.275Z,6.20
2023-04-28T20:54:01.551Z,10.90
2023-04-28T20:56:28.771Z,4.40
2023-04-28T20:58:55.928Z,5.90
2023-04-28T21:01:23.202Z,13.90
2023-04-28T21:03:50.619Z,21.20
2023-04-28T21:06:18.390Z,10.60
2023-04-28T21:08:45.440Z,11.40
2023-04-28T21:11:13.514Z,11.40
2023-04-28T21:13:43.057Z,12.20
2023-04-28T21:16:20.527Z,10.30
2023-04-28T21:18:49.246Z,13.50
2023-04-28T21:21:16.552Z,9.30
2023-04-28T21:23:43.582Z,4.70
2023-04-28T21:26:10.605Z,10.90
2023-04-28T21:28:39.757Z,11.90
2023-04-28T21:31:06.818Z,11.50
2023-04-28T21:33:33.777Z,4.90
2023-04-28T21:36:05.224Z,8.30
2023-04-28T21:38:32.207Z,5.00
2023-04-28T21:40:59.557Z,4.60
2023-04-28T21:43:26.502Z,7.70
2023-04-28T21:45:53.547Z,20.10
2023-04-28T21:48:21.514Z,17.90
2023-04-28T21:50:48.565Z,9.70
2023-04-28T21:53:15.709Z,14.00
2023-04-28T21:55:44.729Z,14.80
2023-04-28T21:58:12.373Z,20.10
2023-04-28T22:00:41.046Z,13.20
2023-04-28T22:03:08.635Z,6.20
2023-04-28T22:05:35.954Z,8.80
2023-04-28T22:08:04.341Z,6.00
2023-04-28T22:10:32.575Z,8.00
2023-04-28T22:13:01.290Z,10.30
2023-04-28T22:15:28.375Z,14.20
2023-04-28T22:17:55.419Z,11.70
2023-04-28T22:20:22.431Z,6.10
2023-04-28T22:22:49.334Z,8.00
2023-04-28T22:25:17.146Z,5.80
2023-04-28T22:27:44.385Z,6.20
2023-04-28T22:30:12.803Z,10.80
2023-04-28T22:32:39.904Z,7.10
2023-04-28T22:35:07.786Z,5.60
2023-04-28T22:37:35.643Z,4.70
2023-04-28T22:40:02.793Z,6.10
2023-04-28T22:42:29.740Z,13.10
2023-04-28T22:44:56.675Z,9.90
2023-04-28T22:47:23.663Z,6.00
2023-04-28T22:49:50.940Z,6.50
2023-04-28T22:52:20.576Z,4.60
2023-04-28T22:54:49.173Z,2.80
2023-04-28T22:57:16.525Z,3.50
2023-04-28T22:59:43.454Z,7.50
2023-04-28T23:02:12.554Z,4.10
2023-04-28T23:04:40.219Z,6.20
2023-04-28T23:07:07.810Z,14.50
2023-04-28T23:09:36.350Z,4.70
2023-04-28T23:12:04.183Z,3.10
2023-04-28T23:14:31.851Z,3.60
2023-04-28T23:16:58.916Z,3.20
2023-04-28T23:19:26.301Z,3.90
2023-04-28T23:21:54.505Z,6.90
2023-04-28T23:24:21.438Z,2.40
2023-04-28T23:26:48.357Z,4.70
2023-04-28T23:29:15.373Z,4.70
2023-04-28T23:31:42.279Z,8.10
2023-04-28T23:34:09.266Z,4.50
2023-04-28T23:36:37.969Z,7.20
2023-04-28T23:39:04.931Z,4.10
2023-04-28T23:41:32.445Z,1.20
2023-04-28T23:43:59.629Z,2.70
2023-04-28T23:46:26.639Z,0.90
2023-04-28T23:48:53.891Z,4.10
2023-04-28T23:51:20.785Z,1.40
2023-04-28T23:53:48.184Z,1.90
2023-04-28T23:56:15.126Z,4.30
2023-04-28T23:58:42.624Z,12.70
